sensor_id;sensor_type;location;lat;lon;timestamp;P1;durP1;ratioP1;P2;durP2;ratioP2
705;SDS011;21234;48.690;9.016;2022-08-19T00:01:54;13.40;;;11.97;;
705;SDS011;21234;48.690;9.016;2022-08-19T00:04:24;15.80;;;12.47;;
705;SDS011;21234;48.690;9.016;2022-08-19T00:06:52;14.67;;;11.77;;
705;SDS011;21234;48.690;9.016;2022-08-19T00:09:20;13.10;;;11.70;;
705;SDS011;21234;48.690;9.016;2022-08-19T00:11:48;14.27;;;11.97;;
705;SDS011;21234;48.690;9.016;2022-08-19T00:14:16;12.90;;;10.43;;
705;SDS011;21234;48.690;9.016;2022-08-19T00:16:44;14.63;;;12.27;;
705;SDS011;21234;48.690;9.016;2022-08-19T00:19:13;17.83;;;11.77;;
705;SDS011;21234;48.690;9.016;2022-08-19T00:21:40;13.60;;;11.00;;
705;SDS011;21234;48.690;9.016;2022-08-19T00:24:07;13.13;;;11.40;;
705;SDS011;21234;48.690;9.016;2022-08-19T00:26:35;12.33;;;11.07;;
705;SDS011;21234;48.690;9.016;2022-08-19T00:29:03;13.97;;;12.47;;
705;SDS011;21234;48.690;9.016;2022-08-19T00:31:32;15.90;;;13.40;;
705;SDS011;21234;48.690;9.016;2022-08-19T00:33:59;13.87;;;12.37;;
705;SDS011;21234;48.690;9.016;2022-08-19T00:36:26;14.53;;;11.47;;
705;SDS011;21234;48.690;9.016;2022-08-19T00:38:53;14.60;;;13.13;;
705;SDS011;21234;48.690;9.016;2022-08-19T00:41:20;14.83;;;11.70;;
705;SDS011;21234;48.690;9.016;2022-08-19T00:43:59;15.03;;;12.40;;
705;SDS011;21234;48.690;9.016;2022-08-19T00:46:30;13.80;;;12.23;;
705;SDS011;21234;48.690;9.016;2022-08-19T00:48:59;16.33;;;13.17;;
705;SDS011;21234;48.690;9.016;2022-08-19T00:51:27;13.67;;;12.23;;
705;SDS011;21234;48.690;9.016;2022-08-19T00:53:57;15.87;;;13.90;;
705;SDS011;21234;48.690;9.016;2022-08-19T00:56:26;17.50;;;13.60;;
705;SDS011;21234;48.690;9.016;2022-08-19T00:58:54;14.53;;;12.30;;
705;SDS011;21234;48.690;9.016;2022-08-19T01:01:22;17.37;;;14.10;;
705;SDS011;21234;48.690;9.016;2022-08-19T01:03:49;17.77;;;13.00;;
705;SDS011;21234;48.690;9.016;2022-08-19T01:06:17;16.17;;;13.80;;
705;SDS011;21234;48.690;9.016;2022-08-19T01:08:44;15.80;;;12.33;;
705;SDS011;21234;48.690;9.016;2022-08-19T01:11:11;16.27;;;13.33;;
705;SDS011;21234;48.690;9.016;2022-08-19T01:13:38;14.33;;;12.70;;
705;SDS011;21234;48.690;9.016;2022-08-19T01:16:06;16.87;;;13.43;;
705;SDS011;21234;48.690;9.016;2022-08-19T01:18:36;17.03;;;13.33;;
705;SDS011;21234;48.690;9.016;2022-08-19T01:21:07;14.90;;;13.40;;
705;SDS011;21234;48.690;9.016;2022-08-19T01:23:42;17.27;;;15.47;;
705;SDS011;21234;48.690;9.016;2022-08-19T01:26:10;16.10;;;13.10;;
705;SDS011;21234;48.690;9.016;2022-08-19T01:28:39;15.00;;;13.43;;
705;SDS011;21234;48.690;9.016;2022-08-19T01:31:07;14.43;;;12.60;;
705;SDS011;21234;48.690;9.016;2022-08-19T01:33:36;17.03;;;14.30;;
705;SDS011;21234;48.690;9.016;2022-08-19T01:36:04;16.70;;;13.93;;
705;SDS011;21234;48.690;9.016;2022-08-19T01:38:35;19.80;;;15.70;;
705;SDS011;21234;48.690;9.016;2022-08-19T01:41:05;14.23;;;12.67;;
705;SDS011;21234;48.690;9.016;2022-08-19T01:43:32;20.27;;;14.80;;
705;SDS011;21234;48.690;9.016;2022-08-19T01:45:59;18.13;;;13.83;;
705;SDS011;21234;48.690;9.016;2022-08-19T01:48:27;17.03;;;14.63;;
705;SDS011;21234;48.690;9.016;2022-08-19T01:50:59;17.30;;;13.57;;
705;SDS011;21234;48.690;9.016;2022-08-19T01:53:26;16.40;;;14.13;;
705;SDS011;21234;48.690;9.016;2022-08-19T01:55:53;17.03;;;14.90;;
705;SDS011;21234;48.690;9.016;2022-08-19T01:58:22;16.53;;;14.50;;
705;SDS011;21234;48.690;9.016;2022-08-19T02:00:54;18.63;;;15.17;;
705;SDS011;21234;48.690;9.016;2022-08-19T02:03:21;22.20;;;15.80;;
705;SDS011;21234;48.690;9.016;2022-08-19T02:05:48;20.47;;;16.23;;
705;SDS011;21234;48.690;9.016;2022-08-19T02:08:20;16.10;;;14.37;;
705;SDS011;21234;48.690;9.016;2022-08-19T02:10:47;17.30;;;14.70;;
705;SDS011;21234;48.690;9.016;2022-08-19T02:13:14;17.80;;;15.20;;
705;SDS011;21234;48.690;9.016;2022-08-19T02:15:43;19.60;;;15.30;;
705;SDS011;21234;48.690;9.016;2022-08-19T02:18:10;20.30;;;15.77;;
705;SDS011;21234;48.690;9.016;2022-08-19T02:20:37;20.03;;;14.47;;
705;SDS011;21234;48.690;9.016;2022-08-19T02:23:05;18.27;;;14.50;;
705;SDS011;21234;48.690;9.016;2022-08-19T02:25:33;18.80;;;14.50;;
705;SDS011;21234;48.690;9.016;2022-08-19T02:27:59;18.80;;;15.47;;
705;SDS011;21234;48.690;9.016;2022-08-19T02:30:26;18.17;;;14.47;;
705;SDS011;21234;48.690;9.016;2022-08-19T02:32:55;17.07;;;14.93;;
705;SDS011;21234;48.690;9.016;2022-08-19T02:35:22;22.40;;;15.70;;
705;SDS011;21234;48.690;9.016;2022-08-19T02:37:49;18.73;;;13.77;;
705;SDS011;21234;48.690;9.016;2022-08-19T02:40:34;21.50;;;16.47;;
705;SDS011;21234;48.690;9.016;2022-08-19T02:43:03;19.57;;;15.47;;
705;SDS011;21234;48.690;9.016;2022-08-19T02:45:32;18.63;;;15.20;;
705;SDS011;21234;48.690;9.016;2022-08-19T02:48:01;19.20;;;15.63;;
705;SDS011;21234;48.690;9.016;2022-08-19T02:50:29;17.63;;;14.87;;
705;SDS011;21234;48.690;9.016;2022-08-19T02:52:56;19.53;;;15.73;;
705;SDS011;21234;48.690;9.016;2022-08-19T02:55:23;16.90;;;14.57;;
705;SDS011;21234;48.690;9.016;2022-08-19T02:57:49;22.93;;;17.07;;
705;SDS011;21234;48.690;9.016;2022-08-19T03:00:16;18.63;;;15.13;;
705;SDS011;21234;48.690;9.016;2022-08-19T03:02:43;21.10;;;16.30;;
705;SDS011;21234;48.690;9.016;2022-08-19T03:05:13;17.43;;;15.13;;
705;SDS011;21234;48.690;9.016;2022-08-19T03:07:39;22.90;;;17.77;;
705;SDS011;21234;48.690;9.016;2022-08-19T03:10:07;18.60;;;15.90;;
705;SDS011;21234;48.690;9.016;2022-08-19T03:12:35;20.90;;;17.50;;
705;SDS011;21234;48.690;9.016;2022-08-19T03:15:03;19.03;;;17.00;;
705;SDS011;21234;48.690;9.016;2022-08-19T03:17:30;19.93;;;15.60;;
705;SDS011;21234;48.690;9.016;2022-08-19T03:19:57;19.60;;;16.30;;
705;SDS011;21234;48.690;9.016;2022-08-19T03:22:25;27.13;;;19.43;;
705;SDS011;21234;48.690;9.016;2022-08-19T03:24:52;21.57;;;16.50;;
705;SDS011;21234;48.690;9.016;2022-08-19T03:27:19;20.10;;;17.90;;
705;SDS011;21234;48.690;9.016;2022-08-19T03:29:46;17.30;;;15.10;;
705;SDS011;21234;48.690;9.016;2022-08-19T03:32:13;20.73;;;16.13;;
705;SDS011;21234;48.690;9.016;2022-08-19T03:34:39;23.83;;;17.13;;
705;SDS011;21234;48.690;9.016;2022-08-19T03:37:07;23.10;;;17.50;;
705;SDS011;21234;48.690;9.016;2022-08-19T03:39:38;18.40;;;16.50;;
705;SDS011;21234;48.690;9.016;2022-08-19T03:42:06;24.10;;;18.90;;
705;SDS011;21234;48.690;9.016;2022-08-19T03:44:33;19.27;;;16.23;;
705;SDS011;21234;48.690;9.016;2022-08-19T03:47:01;21.00;;;17.10;;
705;SDS011;21234;48.690;9.016;2022-08-19T03:49:29;23.50;;;19.60;;
705;SDS011;21234;48.690;9.016;2022-08-19T03:51:58;22.23;;;17.33;;
705;SDS011;21234;48.690;9.016;2022-08-19T03:54:26;22.07;;;17.53;;
705;SDS011;21234;48.690;9.016;2022-08-19T03:56:55;22.53;;;17.90;;
705;SDS011;21234;48.690;9.016;2022-08-19T03:59:23;19.90;;;17.90;;
705;SDS011;21234;48.690;9.016;2022-08-19T04:01:51;23.87;;;19.97;;
705;SDS011;21234;48.690;9.016;2022-08-19T04:04:18;24.20;;;18.73;;
705;SDS011;21234;48.690;9.016;2022-08-19T04:06:45;26.20;;;18.67;;
705;SDS011;21234;48.690;9.016;2022-08-19T04:09:12;20.30;;;17.63;;
705;SDS011;21234;48.690;9.016;2022-08-19T04:11:40;28.93;;;20.40;;
705;SDS011;21234;48.690;9.016;2022-08-19T04:14:10;20.80;;;18.57;;
705;SDS011;21234;48.690;9.016;2022-08-19T04:16:39;24.00;;;19.03;;
705;SDS011;21234;48.690;9.016;2022-08-19T04:19:06;19.00;;;17.00;;
705;SDS011;21234;48.690;9.016;2022-08-19T04:21:33;21.77;;;16.43;;
705;SDS011;21234;48.690;9.016;2022-08-19T04:24:01;25.40;;;18.83;;
705;SDS011;21234;48.690;9.016;2022-08-19T04:26:30;23.70;;;18.37;;
705;SDS011;21234;48.690;9.016;2022-08-19T04:29:00;21.33;;;18.00;;
705;SDS011;21234;48.690;9.016;2022-08-19T04:31:30;21.97;;;17.83;;
705;SDS011;21234;48.690;9.016;2022-08-19T04:34:01;23.83;;;18.30;;
705;SDS011;21234;48.690;9.016;2022-08-19T04:36:30;22.37;;;19.80;;
705;SDS011;21234;48.690;9.016;2022-08-19T04:38:59;24.60;;;19.53;;
705;SDS011;21234;48.690;9.016;2022-08-19T04:41:27;20.60;;;17.83;;
705;SDS011;21234;48.690;9.016;2022-08-19T04:44:12;22.47;;;20.07;;
705;SDS011;21234;48.690;9.016;2022-08-19T04:46:40;21.93;;;17.17;;
705;SDS011;21234;48.690;9.016;2022-08-19T04:49:07;26.57;;;19.90;;
705;SDS011;21234;48.690;9.016;2022-08-19T04:51:34;25.63;;;19.93;;
705;SDS011;21234;48.690;9.016;2022-08-19T04:54:02;24.33;;;19.00;;
705;SDS011;21234;48.690;9.016;2022-08-19T04:56:29;28.53;;;22.00;;
705;SDS011;21234;48.690;9.016;2022-08-19T04:58:56;22.17;;;19.70;;
705;SDS011;21234;48.690;9.016;2022-08-19T05:01:28;22.27;;;19.93;;
705;SDS011;21234;48.690;9.016;2022-08-19T05:03:57;24.20;;;19.73;;
705;SDS011;21234;48.690;9.016;2022-08-19T05:06:25;22.60;;;19.10;;
705;SDS011;21234;48.690;9.016;2022-08-19T05:08:52;23.47;;;19.43;;
705;SDS011;21234;48.690;9.016;2022-08-19T05:11:20;26.87;;;19.63;;
705;SDS011;21234;48.690;9.016;2022-08-19T05:13:49;25.80;;;20.27;;
705;SDS011;21234;48.690;9.016;2022-08-19T05:16:17;26.37;;;20.03;;
705;SDS011;21234;48.690;9.016;2022-08-19T05:18:46;25.20;;;20.50;;
705;SDS011;21234;48.690;9.016;2022-08-19T05:21:32;25.33;;;18.60;;
705;SDS011;21234;48.690;9.016;2022-08-19T05:24:17;24.13;;;19.80;;
705;SDS011;21234;48.690;9.016;2022-08-19T05:26:46;23.00;;;19.70;;
705;SDS011;21234;48.690;9.016;2022-08-19T05:29:14;21.90;;;18.90;;
705;SDS011;21234;48.690;9.016;2022-08-19T05:31:43;22.10;;;17.40;;
705;SDS011;21234;48.690;9.016;2022-08-19T05:34:10;24.53;;;20.43;;
705;SDS011;21234;48.690;9.016;2022-08-19T05:36:39;23.27;;;20.53;;
705;SDS011;21234;48.690;9.016;2022-08-19T05:39:09;23.17;;;18.73;;
705;SDS011;21234;48.690;9.016;2022-08-19T05:41:40;26.27;;;19.93;;
705;SDS011;21234;48.690;9.016;2022-08-19T05:44:08;22.20;;;18.20;;
705;SDS011;21234;48.690;9.016;2022-08-19T05:46:35;22.90;;;19.07;;
705;SDS011;21234;48.690;9.016;2022-08-19T05:49:03;24.00;;;17.93;;
705;SDS011;21234;48.690;9.016;2022-08-19T05:51:31;23.80;;;20.20;;
705;SDS011;21234;48.690;9.016;2022-08-19T05:54:00;23.40;;;19.03;;
705;SDS011;21234;48.690;9.016;2022-08-19T05:56:27;24.80;;;20.17;;
705;SDS011;21234;48.690;9.016;2022-08-19T05:58:55;26.53;;;18.27;;
705;SDS011;21234;48.690;9.016;2022-08-19T06:01:23;22.63;;;17.27;;
705;SDS011;21234;48.690;9.016;2022-08-19T06:03:51;27.90;;;19.20;;
705;SDS011;21234;48.690;9.016;2022-08-19T06:06:19;31.53;;;20.00;;
705;SDS011;21234;48.690;9.016;2022-08-19T06:08:46;25.23;;;19.50;;
705;SDS011;21234;48.690;9.016;2022-08-19T06:11:18;24.23;;;18.57;;
705;SDS011;21234;48.690;9.016;2022-08-19T06:13:49;21.77;;;17.40;;
705;SDS011;21234;48.690;9.016;2022-08-19T06:16:18;26.40;;;18.93;;
705;SDS011;21234;48.690;9.016;2022-08-19T06:18:48;25.53;;;20.57;;
705;SDS011;21234;48.690;9.016;2022-08-19T06:21:18;20.23;;;18.10;;
705;SDS011;21234;48.690;9.016;2022-08-19T06:23:45;23.67;;;18.67;;
705;SDS011;21234;48.690;9.016;2022-08-19T06:26:12;24.07;;;20.30;;
705;SDS011;21234;48.690;9.016;2022-08-19T06:28:42;24.17;;;19.43;;
705;SDS011;21234;48.690;9.016;2022-08-19T06:31:11;24.27;;;19.60;;
705;SDS011;21234;48.690;9.016;2022-08-19T06:33:40;25.33;;;19.70;;
705;SDS011;21234;48.690;9.016;2022-08-19T06:36:07;23.20;;;18.57;;
705;SDS011;21234;48.690;9.016;2022-08-19T06:38:41;25.30;;;19.80;;
705;SDS011;21234;48.690;9.016;2022-08-19T06:41:08;29.10;;;20.87;;
705;SDS011;21234;48.690;9.016;2022-08-19T06:43:35;20.73;;;18.50;;
705;SDS011;21234;48.690;9.016;2022-08-19T06:46:04;28.03;;;18.70;;
705;SDS011;21234;48.690;9.016;2022-08-19T06:48:36;23.70;;;18.97;;
705;SDS011;21234;48.690;9.016;2022-08-19T06:51:04;21.80;;;16.80;;
705;SDS011;21234;48.690;9.016;2022-08-19T06:53:31;24.70;;;19.13;;
705;SDS011;21234;48.690;9.016;2022-08-19T06:55:58;24.40;;;19.43;;
705;SDS011;21234;48.690;9.016;2022-08-19T06:58:27;22.50;;;17.60;;
705;SDS011;21234;48.690;9.016;2022-08-19T07:00:57;21.77;;;18.60;;
705;SDS011;21234;48.690;9.016;2022-08-19T07:03:28;19.53;;;16.83;;
705;SDS011;21234;48.690;9.016;2022-08-19T07:05:56;23.70;;;18.13;;
705;SDS011;21234;48.690;9.016;2022-08-19T07:08:24;20.53;;;17.10;;
705;SDS011;21234;48.690;9.016;2022-08-19T07:10:52;19.07;;;16.13;;
705;SDS011;21234;48.690;9.016;2022-08-19T07:13:19;22.83;;;17.17;;
705;SDS011;21234;48.690;9.016;2022-08-19T07:15:49;23.27;;;17.20;;
705;SDS011;21234;48.690;9.016;2022-08-19T07:18:17;24.50;;;18.57;;
705;SDS011;21234;48.690;9.016;2022-08-19T07:20:46;19.13;;;17.13;;
705;SDS011;21234;48.690;9.016;2022-08-19T07:23:13;25.60;;;16.30;;
705;SDS011;21234;48.690;9.016;2022-08-19T07:25:40;19.07;;;16.10;;
705;SDS011;21234;48.690;9.016;2022-08-19T07:28:08;18.87;;;16.47;;
705;SDS011;21234;48.690;9.016;2022-08-19T07:30:36;30.60;;;19.53;;
705;SDS011;21234;48.690;9.016;2022-08-19T07:33:03;19.50;;;17.00;;
705;SDS011;21234;48.690;9.016;2022-08-19T07:35:30;20.53;;;16.20;;
705;SDS011;21234;48.690;9.016;2022-08-19T07:37:58;20.00;;;17.87;;
705;SDS011;21234;48.690;9.016;2022-08-19T07:40:27;18.00;;;14.00;;
705;SDS011;21234;48.690;9.016;2022-08-19T07:42:54;18.83;;;15.23;;
705;SDS011;21234;48.690;9.016;2022-08-19T07:45:21;18.90;;;15.70;;
705;SDS011;21234;48.690;9.016;2022-08-19T07:47:47;16.80;;;15.00;;
705;SDS011;21234;48.690;9.016;2022-08-19T07:50:14;20.63;;;18.37;;
705;SDS011;21234;48.690;9.016;2022-08-19T07:52:43;20.53;;;16.03;;
705;SDS011;21234;48.690;9.016;2022-08-19T07:55:11;19.67;;;16.10;;
705;SDS011;21234;48.690;9.016;2022-08-19T07:57:38;17.50;;;15.60;;
705;SDS011;21234;48.690;9.016;2022-08-19T08:00:05;20.70;;;16.37;;
705;SDS011;21234;48.690;9.016;2022-08-19T08:02:33;20.67;;;17.03;;
705;SDS011;21234;48.690;9.016;2022-08-19T08:05:00;18.80;;;14.90;;
705;SDS011;21234;48.690;9.016;2022-08-19T08:07:44;18.73;;;14.40;;
705;SDS011;21234;48.690;9.016;2022-08-19T08:10:30;17.97;;;16.10;;
705;SDS011;21234;48.690;9.016;2022-08-19T08:12:57;17.90;;;14.80;;
705;SDS011;21234;48.690;9.016;2022-08-19T08:15:26;17.70;;;15.13;;
705;SDS011;21234;48.690;9.016;2022-08-19T08:17:52;19.10;;;16.97;;
705;SDS011;21234;48.690;9.016;2022-08-19T08:20:19;19.30;;;17.30;;
705;SDS011;21234;48.690;9.016;2022-08-19T08:22:46;17.20;;;15.40;;
705;SDS011;21234;48.690;9.016;2022-08-19T08:25:33;18.97;;;15.13;;
705;SDS011;21234;48.690;9.016;2022-08-19T08:28:01;20.83;;;15.67;;
705;SDS011;21234;48.690;9.016;2022-08-19T08:30:29;17.97;;;16.07;;
705;SDS011;21234;48.690;9.016;2022-08-19T08:32:57;18.63;;;15.23;;
705;SDS011;21234;48.690;9.016;2022-08-19T08:35:24;21.57;;;15.80;;
705;SDS011;21234;48.690;9.016;2022-08-19T08:37:52;19.10;;;16.40;;
705;SDS011;21234;48.690;9.016;2022-08-19T08:40:22;24.40;;;15.57;;
705;SDS011;21234;48.690;9.016;2022-08-19T08:42:57;17.27;;;15.40;;
705;SDS011;21234;48.690;9.016;2022-08-19T08:45:30;17.60;;;15.70;;
705;SDS011;21234;48.690;9.016;2022-08-19T08:48:01;16.10;;;14.00;;
705;SDS011;21234;48.690;9.016;2022-08-19T08:50:37;18.63;;;15.27;;
705;SDS011;21234;48.690;9.016;2022-08-19T08:53:09;17.90;;;15.50;;
705;SDS011;21234;48.690;9.016;2022-08-19T08:55:39;21.40;;;16.77;;
705;SDS011;21234;48.690;9.016;2022-08-19T08:58:09;18.97;;;15.20;;
705;SDS011;21234;48.690;9.016;2022-08-19T09:00:43;18.60;;;15.00;;
705;SDS011;21234;48.690;9.016;2022-08-19T09:03:16;18.37;;;15.80;;
705;SDS011;21234;48.690;9.016;2022-08-19T09:05:48;17.27;;;15.47;;
705;SDS011;21234;48.690;9.016;2022-08-19T09:08:22;15.77;;;14.07;;
705;SDS011;21234;48.690;9.016;2022-08-19T09:10:59;16.30;;;14.27;;
705;SDS011;21234;48.690;9.016;2022-08-19T09:13:33;18.93;;;15.67;;
705;SDS011;21234;48.690;9.016;2022-08-19T09:16:12;17.80;;;14.80;;
705;SDS011;21234;48.690;9.016;2022-08-19T09:18:42;16.30;;;14.70;;
705;SDS011;21234;48.690;9.016;2022-08-19T09:21:12;17.70;;;14.90;;
705;SDS011;21234;48.690;9.016;2022-08-19T09:23:40;16.03;;;14.10;;
705;SDS011;21234;48.690;9.016;2022-08-19T09:26:09;19.53;;;15.30;;
705;SDS011;21234;48.690;9.016;2022-08-19T09:28:40;21.57;;;16.37;;
705;SDS011;21234;48.690;9.016;2022-08-19T09:31:08;20.00;;;14.90;;
705;SDS011;21234;48.690;9.016;2022-08-19T09:33:36;15.60;;;14.00;;
705;SDS011;21234;48.690;9.016;2022-08-19T09:36:04;18.53;;;16.53;;
705;SDS011;21234;48.690;9.016;2022-08-19T09:38:32;17.40;;;14.50;;
705;SDS011;21234;48.690;9.016;2022-08-19T09:41:02;15.60;;;13.97;;
705;SDS011;21234;48.690;9.016;2022-08-19T09:43:30;16.77;;;15.03;;
705;SDS011;21234;48.690;9.016;2022-08-19T09:45:58;16.03;;;14.27;;
705;SDS011;21234;48.690;9.016;2022-08-19T09:48:26;16.70;;;15.10;;
705;SDS011;21234;48.690;9.016;2022-08-19T09:50:52;15.60;;;13.73;;
705;SDS011;21234;48.690;9.016;2022-08-19T09:53:19;17.07;;;14.50;;
705;SDS011;21234;48.690;9.016;2022-08-19T09:55:47;15.80;;;14.03;;
705;SDS011;21234;48.690;9.016;2022-08-19T09:58:14;18.90;;;15.03;;
705;SDS011;21234;48.690;9.016;2022-08-19T10:00:41;15.23;;;13.70;;
705;SDS011;21234;48.690;9.016;2022-08-19T10:03:09;17.00;;;15.17;;
705;SDS011;21234;48.690;9.016;2022-08-19T10:05:36;16.15;;;14.10;;
705;SDS011;21234;48.690;9.016;2022-08-19T10:08:16;16.40;;;14.67;;
705;SDS011;21234;48.690;9.016;2022-08-19T10:10:45;15.00;;;13.50;;
705;SDS011;21234;48.690;9.016;2022-08-19T10:13:12;16.87;;;14.73;;
705;SDS011;21234;48.690;9.016;2022-08-19T10:15:41;15.90;;;14.20;;
705;SDS011;21234;48.690;9.016;2022-08-19T10:18:09;16.53;;;14.87;;
705;SDS011;21234;48.690;9.016;2022-08-19T10:20:36;19.50;;;14.73;;
705;SDS011;21234;48.690;9.016;2022-08-19T10:23:03;15.80;;;13.00;;
705;SDS011;21234;48.690;9.016;2022-08-19T10:25:31;17.87;;;13.60;;
705;SDS011;21234;48.690;9.016;2022-08-19T10:27:59;14.30;;;12.60;;
705;SDS011;21234;48.690;9.016;2022-08-19T10:30:25;15.63;;;13.90;;
705;SDS011;21234;48.690;9.016;2022-08-19T10:32:52;13.03;;;11.80;;
705;SDS011;21234;48.690;9.016;2022-08-19T10:35:20;12.50;;;11.20;;
705;SDS011;21234;48.690;9.016;2022-08-19T10:37:47;14.80;;;12.80;;
705;SDS011;21234;48.690;9.016;2022-08-19T10:40:14;12.77;;;11.47;;
705;SDS011;21234;48.690;9.016;2022-08-19T10:42:41;12.23;;;11.03;;
705;SDS011;21234;48.690;9.016;2022-08-19T10:45:08;12.80;;;11.43;;
705;SDS011;21234;48.690;9.016;2022-08-19T10:47:36;12.87;;;10.73;;
705;SDS011;21234;48.690;9.016;2022-08-19T10:50:03;12.37;;;10.97;;
705;SDS011;21234;48.690;9.016;2022-08-19T10:52:49;11.70;;;10.50;;
705;SDS011;21234;48.690;9.016;2022-08-19T10:55:17;10.40;;;9.40;;
705;SDS011;21234;48.690;9.016;2022-08-19T10:58:03;10.50;;;9.50;;
705;SDS011;21234;48.690;9.016;2022-08-19T11:00:35;10.03;;;8.80;;
705;SDS011;21234;48.690;9.016;2022-08-19T11:03:02;10.00;;;9.07;;
705;SDS011;21234;48.690;9.016;2022-08-19T11:05:29;10.40;;;9.23;;
705;SDS011;21234;48.690;9.016;2022-08-19T11:07:57;10.27;;;9.27;;
705;SDS011;21234;48.690;9.016;2022-08-19T11:10:23;10.50;;;9.23;;
705;SDS011;21234;48.690;9.016;2022-08-19T11:12:50;10.70;;;9.60;;
705;SDS011;21234;48.690;9.016;2022-08-19T11:15:19;10.17;;;9.17;;
705;SDS011;21234;48.690;9.016;2022-08-19T11:17:47;11.23;;;10.13;;
705;SDS011;21234;48.690;9.016;2022-08-19T11:20:13;11.47;;;9.00;;
705;SDS011;21234;48.690;9.016;2022-08-19T11:22:41;11.93;;;10.77;;
705;SDS011;21234;48.690;9.016;2022-08-19T11:25:10;10.40;;;9.40;;
705;SDS011;21234;48.690;9.016;2022-08-19T11:27:38;12.47;;;11.17;;
705;SDS011;21234;48.690;9.016;2022-08-19T11:30:08;15.10;;;10.10;;
705;SDS011;21234;48.690;9.016;2022-08-19T11:32:36;9.73;;;8.83;;
705;SDS011;21234;48.690;9.016;2022-08-19T11:35:03;9.93;;;8.93;;
705;SDS011;21234;48.690;9.016;2022-08-19T11:37:30;10.20;;;9.20;;
705;SDS011;21234;48.690;9.016;2022-08-19T11:40:02;10.93;;;9.83;;
705;SDS011;21234;48.690;9.016;2022-08-19T11:42:31;9.70;;;8.80;;
705;SDS011;21234;48.690;9.016;2022-08-19T11:45:15;10.70;;;9.70;;
705;SDS011;21234;48.690;9.016;2022-08-19T11:47:42;10.67;;;9.30;;
705;SDS011;21234;48.690;9.016;2022-08-19T11:50:09;10.10;;;9.17;;
705;SDS011;21234;48.690;9.016;2022-08-19T11:52:36;10.20;;;9.20;;
705;SDS011;21234;48.690;9.016;2022-08-19T11:55:03;10.10;;;9.20;;
705;SDS011;21234;48.690;9.016;2022-08-19T11:57:31;9.60;;;8.60;;
705;SDS011;21234;48.690;9.016;2022-08-19T11:59:58;10.67;;;9.67;;
705;SDS011;21234;48.690;9.016;2022-08-19T12:02:26;10.33;;;9.33;;
705;SDS011;21234;48.690;9.016;2022-08-19T12:04:53;9.17;;;8.23;;
705;SDS011;21234;48.690;9.016;2022-08-19T12:07:20;9.47;;;8.20;;
705;SDS011;21234;48.690;9.016;2022-08-19T12:09:47;9.83;;;9.00;;
705;SDS011;21234;48.690;9.016;2022-08-19T12:12:14;8.93;;;8.03;;
705;SDS011;21234;48.690;9.016;2022-08-19T12:14:42;9.57;;;8.57;;
705;SDS011;21234;48.690;9.016;2022-08-19T12:17:10;9.30;;;8.40;;
705;SDS011;21234;48.690;9.016;2022-08-19T12:19:38;8.70;;;7.90;;
705;SDS011;21234;48.690;9.016;2022-08-19T12:22:05;7.60;;;6.90;;
705;SDS011;21234;48.690;9.016;2022-08-19T12:24:32;8.70;;;7.90;;
705;SDS011;21234;48.690;9.016;2022-08-19T12:27:00;8.50;;;7.77;;
705;SDS011;21234;48.690;9.016;2022-08-19T12:29:28;9.33;;;7.93;;
705;SDS011;21234;48.690;9.016;2022-08-19T12:31:57;8.77;;;7.83;;
705;SDS011;21234;48.690;9.016;2022-08-19T12:34:26;8.30;;;7.50;;
705;SDS011;21234;48.690;9.016;2022-08-19T12:36:56;8.57;;;7.20;;
705;SDS011;21234;48.690;9.016;2022-08-19T12:39:23;7.93;;;7.20;;
705;SDS011;21234;48.690;9.016;2022-08-19T12:41:50;7.93;;;7.23;;
705;SDS011;21234;48.690;9.016;2022-08-19T12:44:18;7.20;;;6.50;;
705;SDS011;21234;48.690;9.016;2022-08-19T12:46:46;7.33;;;6.73;;
705;SDS011;21234;48.690;9.016;2022-08-19T12:49:15;7.03;;;6.47;;
705;SDS011;21234;48.690;9.016;2022-08-19T12:51:42;7.90;;;7.17;;
705;SDS011;21234;48.690;9.016;2022-08-19T12:54:09;7.33;;;6.70;;
705;SDS011;21234;48.690;9.016;2022-08-19T12:56:36;7.77;;;7.07;;
705;SDS011;21234;48.690;9.016;2022-08-19T12:59:03;7.20;;;6.60;;
705;SDS011;21234;48.690;9.016;2022-08-19T13:01:32;7.20;;;6.50;;
705;SDS011;21234;48.690;9.016;2022-08-19T13:03:58;7.23;;;6.63;;
705;SDS011;21234;48.690;9.016;2022-08-19T13:06:27;8.40;;;7.70;;
705;SDS011;21234;48.690;9.016;2022-08-19T13:08:54;9.40;;;8.57;;
705;SDS011;21234;48.690;9.016;2022-08-19T13:11:21;8.60;;;7.90;;
705;SDS011;21234;48.690;9.016;2022-08-19T13:13:50;8.50;;;7.80;;
705;SDS011;21234;48.690;9.016;2022-08-19T13:16:20;8.23;;;7.43;;
705;SDS011;21234;48.690;9.016;2022-08-19T13:18:47;8.73;;;7.93;;
705;SDS011;21234;48.690;9.016;2022-08-19T13:21:17;7.70;;;7.00;;
705;SDS011;21234;48.690;9.016;2022-08-19T13:23:47;7.80;;;7.10;;
705;SDS011;21234;48.690;9.016;2022-08-19T13:26:13;8.40;;;7.70;;
705;SDS011;21234;48.690;9.016;2022-08-19T13:28:41;7.97;;;7.17;;
705;SDS011;21234;48.690;9.016;2022-08-19T13:31:26;8.33;;;7.63;;
705;SDS011;21234;48.690;9.016;2022-08-19T13:34:12;7.77;;;7.17;;
705;SDS011;21234;48.690;9.016;2022-08-19T13:36:40;8.07;;;7.27;;
705;SDS011;21234;48.690;9.016;2022-08-19T13:39:08;7.97;;;7.27;;
705;SDS011;21234;48.690;9.016;2022-08-19T13:41:36;8.87;;;7.77;;
705;SDS011;21234;48.690;9.016;2022-08-19T13:44:03;8.47;;;7.77;;
705;SDS011;21234;48.690;9.016;2022-08-19T13:46:31;7.97;;;7.37;;
705;SDS011;21234;48.690;9.016;2022-08-19T13:48:58;10.07;;;9.17;;
705;SDS011;21234;48.690;9.016;2022-08-19T13:51:24;8.60;;;7.90;;
705;SDS011;21234;48.690;9.016;2022-08-19T13:53:51;8.60;;;8.00;;
705;SDS011;21234;48.690;9.016;2022-08-19T13:56:20;9.87;;;9.13;;
705;SDS011;21234;48.690;9.016;2022-08-19T13:58:46;10.40;;;9.50;;
705;SDS011;21234;48.690;9.016;2022-08-19T14:01:18;10.87;;;9.97;;
705;SDS011;21234;48.690;9.016;2022-08-19T14:03:46;10.40;;;9.50;;
705;SDS011;21234;48.690;9.016;2022-08-19T14:06:13;9.83;;;9.03;;
705;SDS011;21234;48.690;9.016;2022-08-19T14:08:40;10.17;;;9.37;;
705;SDS011;21234;48.690;9.016;2022-08-19T14:11:07;10.30;;;8.70;;
705;SDS011;21234;48.690;9.016;2022-08-19T14:13:35;11.40;;;10.50;;
705;SDS011;21234;48.690;9.016;2022-08-19T14:16:06;9.67;;;8.87;;
705;SDS011;21234;48.690;9.016;2022-08-19T14:18:33;10.97;;;10.07;;
705;SDS011;21234;48.690;9.016;2022-08-19T14:21:00;9.80;;;9.00;;
705;SDS011;21234;48.690;9.016;2022-08-19T14:23:28;11.30;;;10.20;;
705;SDS011;21234;48.690;9.016;2022-08-19T14:26:02;10.10;;;9.40;;
705;SDS011;21234;48.690;9.016;2022-08-19T14:28:29;10.07;;;9.27;;
705;SDS011;21234;48.690;9.016;2022-08-19T14:30:58;9.23;;;8.33;;
705;SDS011;21234;48.690;9.016;2022-08-19T14:33:24;10.20;;;9.40;;
705;SDS011;21234;48.690;9.016;2022-08-19T14:35:51;9.77;;;8.87;;
705;SDS011;21234;48.690;9.016;2022-08-19T14:38:19;8.77;;;8.07;;
705;SDS011;21234;48.690;9.016;2022-08-19T14:40:46;9.77;;;8.90;;
705;SDS011;21234;48.690;9.016;2022-08-19T14:43:14;10.00;;;9.20;;
705;SDS011;21234;48.690;9.016;2022-08-19T14:45:42;10.17;;;9.37;;
705;SDS011;21234;48.690;9.016;2022-08-19T14:48:11;11.10;;;10.07;;
705;SDS011;21234;48.690;9.016;2022-08-19T14:50:38;9.77;;;9.07;;
705;SDS011;21234;48.690;9.016;2022-08-19T14:53:05;11.17;;;10.27;;
705;SDS011;21234;48.690;9.016;2022-08-19T14:55:34;8.70;;;8.00;;
705;SDS011;21234;48.690;9.016;2022-08-19T14:58:01;9.80;;;8.97;;
705;SDS011;21234;48.690;9.016;2022-08-19T15:00:28;10.50;;;9.60;;
705;SDS011;21234;48.690;9.016;2022-08-19T15:02:55;10.60;;;9.73;;